createdAt,value
2024-01-20T00:00:32.244Z,70.66
2024-01-20T00:02:59.800Z,70.61
2024-01-20T00:05:27.416Z,70.75
2024-01-20T00:07:55.679Z,70.97
2024-01-20T00:10:23.295Z,70.86
2024-01-20T00:12:50.973Z,70.82
2024-01-20T00:15:18.540Z,71.11
2024-01-20T00:17:46.882Z,70.86
2024-01-20T00:20:14.821Z,71.02
2024-01-20T00:22:42.679Z,70.89
2024-01-20T00:25:11.590Z,71.00
2024-01-20T00:27:40.099Z,70.70
2024-01-20T00:30:08.276Z,70.50
2024-01-20T00:32:36.040Z,70.44
2024-01-20T00:35:07.706Z,70.79
2024-01-20T00:37:36.418Z,70.94
2024-01-20T00:40:04.396Z,70.97
2024-01-20T00:42:32.032Z,70.81
2024-01-20T00:44:59.679Z,70.81
2024-01-20T00:47:27.272Z,70.60
2024-01-20T00:49:55.100Z,70.55
2024-01-20T00:52:22.871Z,70.85
2024-01-20T00:54:50.423Z,70.51
2024-01-20T00:57:17.988Z,70.52
2024-01-20T00:59:45.647Z,70.37
2024-01-20T01:02:13.365Z,70.21
2024-01-20T01:04:41.131Z,70.25
2024-01-20T01:07:08.844Z,70.12
2024-01-20T01:09:36.389Z,70.12
2024-01-20T01:12:04.060Z,70.14
2024-01-20T01:14:31.711Z,69.99
2024-01-20T01:16:59.310Z,70.25
2024-01-20T01:19:26.954Z,70.03
2024-01-20T01:21:54.481Z,70.21
2024-01-20T01:24:22.202Z,70.23
2024-01-20T01:26:49.925Z,70.26
2024-01-20T01:29:18.031Z,70.37
2024-01-20T01:31:45.911Z,70.47
2024-01-20T01:34:13.749Z,70.55
2024-01-20T01:36:41.474Z,70.56
2024-01-20T01:39:09.363Z,70.53
2024-01-20T01:41:36.790Z,70.63
2024-01-20T01:44:04.376Z,70.51
2024-01-20T01:46:31.921Z,70.83
2024-01-20T01:48:59.585Z,70.95
2024-01-20T01:51:27.551Z,71.06
2024-01-20T01:53:55.240Z,71.02
2024-01-20T01:56:22.965Z,70.87
2024-01-20T01:58:50.637Z,70.90
2024-01-20T02:01:18.366Z,71.04
2024-01-20T02:03:46.230Z,71.02
2024-01-20T02:06:14.090Z,70.84
2024-01-20T02:08:41.783Z,70.82
2024-01-20T02:11:10.381Z,70.96
2024-01-20T02:13:37.939Z,70.98
2024-01-20T02:16:05.899Z,70.79
2024-01-20T02:18:33.394Z,70.79
2024-01-20T02:21:01.250Z,70.70
2024-01-20T02:23:28.995Z,70.86
2024-01-20T02:25:56.640Z,70.70
2024-01-20T02:28:24.192Z,70.76
2024-01-20T02:30:51.892Z,70.89
2024-01-20T02:33:19.630Z,70.94
2024-01-20T02:35:47.278Z,70.73
2024-01-20T02:38:15.255Z,70.88
2024-01-20T02:40:42.812Z,70.85
2024-01-20T02:43:10.470Z,70.97
2024-01-20T02:45:38.049Z,71.04
2024-01-20T02:48:05.722Z,71.08
2024-01-20T02:50:33.553Z,70.83
2024-01-20T02:53:01.208Z,70.86
2024-01-20T02:55:29.290Z,70.82
2024-01-20T02:57:56.956Z,70.81
2024-01-20T03:00:24.657Z,70.78
2024-01-20T03:02:52.233Z,70.65
2024-01-20T03:05:19.847Z,70.69
2024-01-20T03:07:47.502Z,70.62
2024-01-20T03:10:15.055Z,70.41
2024-01-20T03:12:42.745Z,70.34
2024-01-20T03:15:10.320Z,70.38
2024-01-20T03:17:38.439Z,70.43
2024-01-20T03:20:06.209Z,70.37
2024-01-20T03:22:33.777Z,70.34
2024-01-20T03:25:01.496Z,70.56
2024-01-20T03:27:29.116Z,70.39
2024-01-20T03:29:56.766Z,70.35
2024-01-20T03:32:24.460Z,70.32
2024-01-20T03:34:52.093Z,70.21
2024-01-20T03:37:19.742Z,70.36
2024-01-20T03:39:47.313Z,70.28
2024-01-20T03:42:14.889Z,70.36
2024-01-20T03:44:42.419Z,70.54
2024-01-20T03:47:10.505Z,70.28
2024-01-20T03:49:38.200Z,70.37
2024-01-20T03:52:05.915Z,70.39
2024-01-20T03:54:33.483Z,70.51
2024-01-20T03:57:01.477Z,70.47
2024-01-20T03:59:29.101Z,70.34
2024-01-20T04:01:56.972Z,70.17
2024-01-20T04:04:24.739Z,70.13
2024-01-20T04:06:52.491Z,70.08
2024-01-20T04:09:20.076Z,70.08
2024-01-20T04:11:47.818Z,70.08
2024-01-20T04:14:15.581Z,70.03
2024-01-20T04:16:43.347Z,70.17
2024-01-20T04:19:11.026Z,70.03
2024-01-20T04:21:38.976Z,70.08
2024-01-20T04:24:06.753Z,70.08
2024-01-20T04:26:34.398Z,70.15
2024-01-20T04:29:02.082Z,70.21
2024-01-20T04:31:29.726Z,70.22
2024-01-20T04:33:57.481Z,70.19
2024-01-20T04:36:25.182Z,70.16
2024-01-20T04:38:53.239Z,70.10
2024-01-20T04:41:21.012Z,70.08
2024-01-20T04:43:48.744Z,70.11
2024-01-20T04:46:16.521Z,70.26
2024-01-20T04:48:44.369Z,70.28
2024-01-20T04:51:12.179Z,70.24
2024-01-20T04:53:39.883Z,70.33
2024-01-20T04:56:07.573Z,70.29
2024-01-20T04:58:35.011Z,70.34
2024-01-20T05:01:02.634Z,70.53
2024-01-20T05:03:30.515Z,70.56
2024-01-20T05:05:58.356Z,70.61
2024-01-20T05:08:26.266Z,70.65
2024-01-20T05:10:54.130Z,70.39
2024-01-20T05:13:21.688Z,70.48
2024-01-20T05:15:49.458Z,70.49
2024-01-20T05:18:17.379Z,70.50
2024-01-20T05:20:45.085Z,70.67
2024-01-20T05:23:12.868Z,70.75
2024-01-20T05:25:40.833Z,70.76
2024-01-20T05:28:08.381Z,70.47
2024-01-20T05:30:36.104Z,70.65
2024-01-20T05:33:03.960Z,70.47
2024-01-20T05:35:31.875Z,70.56
2024-01-20T05:37:59.633Z,70.59
2024-01-20T05:40:27.200Z,70.76
2024-01-20T05:42:54.755Z,70.86
2024-01-20T05:45:22.687Z,70.77
2024-01-20T05:47:50.475Z,70.62
2024-01-20T05:50:18.140Z,70.48
2024-01-20T05:52:45.847Z,70.43
2024-01-20T05:55:13.580Z,70.40
2024-01-20T05:57:41.232Z,70.38
2024-01-20T06:00:08.867Z,70.23
2024-01-20T06:02:36.553Z,70.36
2024-01-20T06:05:04.467Z,70.24
2024-01-20T06:07:32.496Z,70.27
2024-01-20T06:10:00.275Z,70.11
2024-01-20T06:12:28.290Z,70.19
2024-01-20T06:14:56.241Z,70.39
2024-01-20T06:17:24.071Z,70.34
2024-01-20T06:19:51.668Z,70.49
2024-01-20T06:22:19.285Z,70.30
2024-01-20T06:24:46.844Z,70.43
2024-01-20T06:27:14.529Z,70.41
2024-01-20T06:29:42.069Z,70.42
2024-01-20T06:32:09.921Z,70.43
2024-01-20T06:34:37.534Z,70.64
2024-01-20T06:37:05.252Z,70.73
2024-01-20T06:39:33.015Z,70.65
2024-01-20T06:42:00.846Z,70.67
2024-01-20T06:44:28.540Z,70.58
2024-01-20T06:46:56.223Z,70.48
2024-01-20T06:49:23.860Z,70.46
2024-01-20T06:51:51.618Z,70.23
2024-01-20T06:54:19.410Z,70.13
2024-01-20T06:56:47.045Z,69.84
2024-01-20T06:59:14.702Z,69.76
2024-01-20T07:01:42.368Z,69.64
2024-01-20T07:04:10.057Z,69.63
2024-01-20T07:06:37.928Z,69.48
2024-01-20T07:09:05.707Z,69.27
2024-01-20T07:11:33.319Z,68.98
2024-01-20T07:14:01.004Z,68.88
2024-01-20T07:16:28.641Z,68.55
2024-01-20T07:18:56.553Z,68.59
2024-01-20T07:21:24.400Z,68.42
2024-01-20T07:23:52.130Z,68.51
2024-01-20T07:26:19.707Z,68.30
2024-01-20T07:28:47.657Z,67.87
2024-01-20T07:31:15.232Z,67.55
2024-01-20T07:33:43.055Z,67.09
2024-01-20T07:36:10.877Z,66.85
2024-01-20T07:38:38.301Z,66.76
2024-01-20T07:41:05.865Z,66.37
2024-01-20T07:43:33.433Z,66.36
2024-01-20T07:46:01.190Z,66.27
2024-01-20T07:48:28.940Z,66.04
2024-01-20T07:50:56.967Z,65.56
2024-01-20T07:53:24.579Z,65.51
2024-01-20T07:55:52.255Z,65.24
2024-01-20T07:58:19.909Z,65.20
2024-01-20T08:00:47.587Z,64.99
2024-01-20T08:03:15.373Z,64.54
2024-01-20T08:05:43.014Z,64.09
2024-01-20T08:08:10.553Z,63.74
2024-01-20T08:10:38.118Z,63.43
2024-01-20T08:13:06.088Z,63.13
2024-01-20T08:15:33.695Z,62.92
2024-01-20T08:18:01.571Z,63.13
2024-01-20T08:20:29.297Z,63.03
2024-01-20T08:22:57.025Z,62.79
2024-01-20T08:25:24.587Z,62.83
2024-01-20T08:27:52.367Z,62.97
2024-01-20T08:30:20.158Z,62.84
2024-01-20T08:32:48.052Z,62.95
2024-01-20T08:35:16.045Z,63.09
2024-01-20T08:37:43.603Z,62.93
2024-01-20T08:40:11.266Z,62.99
2024-01-20T08:42:38.938Z,62.59
2024-01-20T08:45:06.670Z,62.54
2024-01-20T08:47:34.357Z,62.41
2024-01-20T08:50:01.959Z,62.05
2024-01-20T08:52:29.572Z,61.19
2024-01-20T08:54:57.141Z,60.90
2024-01-20T08:57:24.823Z,60.67
2024-01-20T08:59:52.552Z,59.99
2024-01-20T09:02:20.319Z,59.87
2024-01-20T09:04:47.880Z,59.56
2024-01-20T09:07:15.635Z,59.55
2024-01-20T09:09:43.233Z,59.92
2024-01-20T09:12:10.906Z,60.00
2024-01-20T09:14:38.945Z,59.84
2024-01-20T09:17:06.709Z,59.62
2024-01-20T09:19:34.322Z,59.39
2024-01-20T09:22:02.114Z,59.18
2024-01-20T09:24:29.715Z,58.98
2024-01-20T09:26:57.366Z,58.81
2024-01-20T09:29:25.192Z,58.55
2024-01-20T09:31:52.738Z,58.11
2024-01-20T09:34:20.493Z,57.28
2024-01-20T09:36:49.114Z,56.55
2024-01-20T09:39:16.686Z,56.46
2024-01-20T09:41:44.510Z,56.95
2024-01-20T09:44:12.069Z,56.41
2024-01-20T09:46:39.735Z,56.30
2024-01-20T09:49:07.378Z,56.25
2024-01-20T09:51:35.492Z,55.89
2024-01-20T09:54:03.802Z,55.84
2024-01-20T09:56:31.700Z,55.77
2024-01-20T09:58:59.531Z,56.06
2024-01-20T10:01:27.306Z,55.88
2024-01-20T10:03:55.145Z,55.55
2024-01-20T10:06:22.794Z,55.64
2024-01-20T10:08:50.623Z,55.82
2024-01-20T10:11:18.488Z,55.51
2024-01-20T10:13:46.214Z,55.76
2024-01-20T10:16:14.209Z,55.56
2024-01-20T10:18:41.625Z,55.71
2024-01-20T10:21:09.346Z,55.97
2024-01-20T10:23:36.996Z,56.17
2024-01-20T10:26:04.550Z,55.51
2024-01-20T10:28:32.118Z,55.46
2024-01-20T10:30:59.777Z,55.96
2024-01-20T10:33:27.397Z,55.54
2024-01-20T10:35:55.208Z,55.50
2024-01-20T10:38:22.867Z,55.43
2024-01-20T10:40:50.532Z,54.35
2024-01-20T10:43:18.345Z,54.30
2024-01-20T10:45:46.170Z,54.07
2024-01-20T10:48:14.055Z,54.41
2024-01-20T10:50:41.896Z,53.96
2024-01-20T10:53:09.563Z,54.16
2024-01-20T10:55:37.242Z,53.86
2024-01-20T10:58:04.796Z,53.84
2024-01-20T11:00:32.811Z,54.00
2024-01-20T11:03:00.536Z,53.61
2024-01-20T11:05:28.401Z,53.76
2024-01-20T11:07:55.950Z,54.22
2024-01-20T11:10:23.610Z,54.54
2024-01-20T11:12:51.269Z,54.27
2024-01-20T11:15:19.187Z,54.28
2024-01-20T11:17:46.904Z,53.94
2024-01-20T11:20:14.699Z,54.07
2024-01-20T11:22:42.532Z,54.26
2024-01-20T11:25:10.092Z,54.12
2024-01-20T11:27:37.769Z,54.60
2024-01-20T11:30:05.449Z,54.97
2024-01-20T11:32:33.135Z,54.65
2024-01-20T11:35:00.843Z,54.02
2024-01-20T11:37:28.602Z,54.32
2024-01-20T11:39:56.168Z,54.29
2024-01-20T11:42:24.082Z,54.80
2024-01-20T11:44:51.684Z,54.12
2024-01-20T11:47:19.359Z,53.63
2024-01-20T11:49:46.982Z,54.03
2024-01-20T11:52:14.772Z,54.50
2024-01-20T11:54:42.486Z,54.22
2024-01-20T11:57:10.144Z,54.22
2024-01-20T11:59:37.752Z,54.28
2024-01-20T12:02:05.632Z,54.54
2024-01-20T12:04:33.197Z,55.22
2024-01-20T12:07:01.067Z,54.64
2024-01-20T12:09:28.832Z,55.10
2024-01-20T12:11:56.375Z,55.06
2024-01-20T12:14:24.028Z,55.36
2024-01-20T12:16:51.586Z,55.65
2024-01-20T12:19:19.255Z,55.34
2024-01-20T12:21:47.015Z,55.58
2024-01-20T12:24:14.992Z,55.28
2024-01-20T12:26:42.541Z,55.48
2024-01-20T12:29:10.408Z,55.49
2024-01-20T12:31:38.066Z,55.39
2024-01-20T12:34:05.843Z,55.60
2024-01-20T12:36:33.745Z,55.64
2024-01-20T12:39:01.647Z,55.76
2024-01-20T12:41:29.330Z,55.79
2024-01-20T12:43:57.088Z,55.83
2024-01-20T12:46:25.065Z,55.94
2024-01-20T12:48:52.858Z,56.37
2024-01-20T12:51:20.737Z,56.39
2024-01-20T12:53:48.460Z,56.57
2024-01-20T12:56:16.214Z,56.79
2024-01-20T12:58:43.685Z,56.74
2024-01-20T13:01:11.250Z,56.54
2024-01-20T13:03:38.815Z,56.22
2024-01-20T13:06:06.644Z,56.56
2024-01-20T13:08:34.643Z,56.25
2024-01-20T13:11:02.282Z,56.14
2024-01-20T13:13:30.279Z,55.77
2024-01-20T13:15:58.105Z,55.72
2024-01-20T13:18:25.961Z,56.13
2024-01-20T13:20:53.647Z,55.84
2024-01-20T13:23:21.310Z,55.49
2024-01-20T13:25:48.958Z,55.47
2024-01-20T13:28:16.626Z,55.91
2024-01-20T13:30:44.312Z,55.52
2024-01-20T13:33:12.528Z,56.04
2024-01-20T13:35:40.216Z,55.54
2024-01-20T13:38:07.988Z,56.01
2024-01-20T13:40:35.651Z,56.14
2024-01-20T13:43:03.508Z,56.05
2024-01-20T13:45:31.198Z,56.02
2024-01-20T13:47:58.983Z,55.90
2024-01-20T13:50:26.619Z,55.80
2024-01-20T13:52:54.500Z,55.76
2024-01-20T13:55:22.131Z,55.81
2024-01-20T13:57:49.913Z,56.14
2024-01-20T14:00:17.521Z,55.86
2024-01-20T14:02:45.347Z,56.25
2024-01-20T14:05:12.996Z,56.43
2024-01-20T14:07:40.733Z,56.67
2024-01-20T14:10:08.558Z,56.38
2024-01-20T14:12:36.383Z,56.42
2024-01-20T14:15:04.275Z,56.36
2024-01-20T14:17:31.922Z,56.53
2024-01-20T14:19:59.600Z,56.78
2024-01-20T14:22:27.325Z,57.15
2024-01-20T14:24:54.901Z,57.09
2024-01-20T14:27:22.467Z,56.91
2024-01-20T14:29:50.119Z,56.97
2024-01-20T14:32:17.770Z,57.20
2024-01-20T14:34:45.386Z,57.25
2024-01-20T14:37:13.595Z,57.43
2024-01-20T14:39:41.354Z,57.57
2024-01-20T14:42:09.179Z,57.41
2024-01-20T14:44:36.882Z,57.67
2024-01-20T14:47:04.439Z,57.71
2024-01-20T14:49:32.206Z,58.01
2024-01-20T14:51:59.880Z,58.31
2024-01-20T14:54:27.807Z,58.34
2024-01-20T14:56:55.601Z,58.34
2024-01-20T14:59:23.464Z,58.51
2024-01-20T15:01:51.129Z,58.73
2024-01-20T15:04:19.054Z,58.71
2024-01-20T15:06:46.876Z,59.02
2024-01-20T15:09:14.771Z,59.25
2024-01-20T15:11:42.698Z,59.12
2024-01-20T15:14:10.257Z,59.21
2024-01-20T15:16:38.320Z,59.66
2024-01-20T15:19:06.105Z,59.74
2024-01-20T15:21:33.795Z,60.07
2024-01-20T15:24:01.666Z,59.93
2024-01-20T15:26:29.276Z,60.02
2024-01-20T15:28:56.943Z,60.36
2024-01-20T15:31:24.492Z,60.45
2024-01-20T15:33:52.300Z,60.47
2024-01-20T15:36:20.137Z,60.53
2024-01-20T15:38:47.932Z,60.85
2024-01-20T15:41:15.446Z,60.75
2024-01-20T15:43:43.205Z,60.85
2024-01-20T15:46:11.488Z,60.99
2024-01-20T15:48:39.009Z,60.99
2024-01-20T15:51:06.651Z,61.14
2024-01-20T15:53:34.262Z,61.23
2024-01-20T15:56:02.134Z,61.39
2024-01-20T15:58:29.983Z,61.34
2024-01-20T16:00:57.709Z,61.42
2024-01-20T16:03:25.478Z,61.52
2024-01-20T16:05:53.298Z,61.51
2024-01-20T16:08:21.041Z,61.61
2024-01-20T16:10:48.715Z,61.68
2024-01-20T16:13:16.586Z,61.49
2024-01-20T16:15:44.286Z,61.89
2024-01-20T16:18:12.179Z,61.84
2024-01-20T16:20:40.279Z,62.14
2024-01-20T16:23:08.029Z,62.22
2024-01-20T16:25:35.698Z,62.14
2024-01-20T16:28:03.248Z,61.93
2024-01-20T16:30:30.855Z,62.14
2024-01-20T16:32:58.521Z,62.27
2024-01-20T16:35:26.454Z,61.99
2024-01-20T16:37:54.004Z,61.94
2024-01-20T16:40:21.564Z,61.82
2024-01-20T16:42:49.320Z,62.09
2024-01-20T16:45:17.105Z,62.20
2024-01-20T16:47:44.899Z,62.19
2024-01-20T16:50:13.271Z,62.36
2024-01-20T16:52:40.890Z,62.28
2024-01-20T16:55:14.778Z,62.14
2024-01-20T16:57:44.134Z,62.25
2024-01-20T17:00:12.190Z,62.43
2024-01-20T17:02:39.831Z,62.36
2024-01-20T17:05:07.441Z,62.25
2024-01-20T17:07:35.248Z,62.24
2024-01-20T17:10:02.911Z,62.47
2024-01-20T17:12:30.507Z,62.22
2024-01-20T17:14:58.247Z,62.21
2024-01-20T17:17:25.939Z,62.30
2024-01-20T17:19:53.717Z,62.65
2024-01-20T17:22:22.243Z,62.37
2024-01-20T17:24:49.903Z,62.44
2024-01-20T17:27:17.611Z,62.67
2024-01-20T17:29:45.236Z,62.73
2024-01-20T17:32:12.894Z,62.86
2024-01-20T17:34:40.567Z,62.81
2024-01-20T17:37:08.234Z,63.00
2024-01-20T17:39:35.940Z,62.94
2024-01-20T17:42:03.992Z,63.27
2024-01-20T17:44:31.640Z,63.09
2024-01-20T17:46:59.260Z,63.07
2024-01-20T17:49:27.125Z,63.12
2024-01-20T17:51:55.215Z,63.18
2024-01-20T17:54:24.499Z,63.33
2024-01-20T17:56:54.130Z,63.46
2024-01-20T17:59:21.774Z,63.30
2024-01-20T18:01:49.812Z,63.48
2024-01-20T18:04:17.697Z,63.89
2024-01-20T18:06:45.478Z,63.78
2024-01-20T18:09:13.137Z,63.68
2024-01-20T18:11:40.693Z,63.81
2024-01-20T18:14:08.243Z,63.91
2024-01-20T18:16:35.897Z,63.83
2024-01-20T18:19:03.528Z,63.97
2024-01-20T18:21:31.130Z,64.07
2024-01-20T18:23:58.981Z,63.98
2024-01-20T18:26:26.541Z,64.13
2024-01-20T18:28:54.140Z,64.25
2024-01-20T18:31:21.761Z,64.35
2024-01-20T18:33:49.477Z,64.13
2024-01-20T18:36:17.339Z,64.43
2024-01-20T18:38:44.859Z,64.14
2024-01-20T18:41:12.413Z,64.31
2024-01-20T18:43:40.078Z,64.47
2024-01-20T18:46:08.046Z,64.59
2024-01-20T18:48:35.794Z,64.59
2024-01-20T18:51:03.725Z,64.75
2024-01-20T18:53:31.429Z,64.59
2024-01-20T18:55:59.104Z,64.70
2024-01-20T18:58:26.649Z,64.75
2024-01-20T19:00:54.364Z,64.71
2024-01-20T19:03:22.100Z,64.84
2024-01-20T19:05:49.975Z,64.54
2024-01-20T19:08:17.497Z,64.64
2024-01-20T19:10:45.059Z,64.66
2024-01-20T19:13:13.235Z,64.79
2024-01-20T19:15:40.861Z,64.73
2024-01-20T19:18:08.818Z,64.74
2024-01-20T19:20:36.631Z,64.78
2024-01-20T19:23:04.193Z,64.92
2024-01-20T19:25:31.895Z,64.78
2024-01-20T19:27:59.516Z,64.70
2024-01-20T19:30:27.494Z,64.75
2024-01-20T19:32:55.204Z,64.82
2024-01-20T19:35:22.899Z,64.82
2024-01-20T19:37:50.563Z,64.94
2024-01-20T19:40:18.119Z,64.81
2024-01-20T19:42:45.818Z,64.97
2024-01-20T19:45:13.570Z,64.94
2024-01-20T19:47:41.210Z,65.03
2024-01-20T19:50:10.464Z,64.86
2024-01-20T19:52:39.289Z,65.09
2024-01-20T19:55:06.862Z,65.00
2024-01-20T19:57:34.715Z,64.92
2024-01-20T20:00:02.417Z,65.09
2024-01-20T20:02:30.046Z,65.02
2024-01-20T20:04:57.745Z,64.93
2024-01-20T20:07:25.366Z,65.08
2024-01-20T20:09:53.099Z,65.07
2024-01-20T20:12:20.790Z,65.19
2024-01-20T20:14:48.351Z,65.27
2024-01-20T20:17:15.911Z,65.25
2024-01-20T20:19:43.638Z,65.40
2024-01-20T20:22:11.453Z,65.72
2024-01-20T20:24:39.231Z,65.70
2024-01-20T20:27:06.984Z,65.64
2024-01-20T20:29:34.983Z,65.68
2024-01-20T20:32:02.607Z,65.71
2024-01-20T20:34:30.380Z,65.68
2024-01-20T20:36:58.172Z,65.74
2024-01-20T20:39:26.062Z,65.80
2024-01-20T20:41:53.743Z,65.66
2024-01-20T20:44:21.413Z,65.71
2024-01-20T20:46:48.992Z,65.97
2024-01-20T20:49:17.021Z,66.02
2024-01-20T20:51:44.751Z,66.05
2024-01-20T20:54:12.475Z,66.16
2024-01-20T20:56:40.221Z,66.29
2024-01-20T20:59:07.794Z,66.49
2024-01-20T21:01:35.389Z,66.16
2024-01-20T21:04:07.017Z,66.36
2024-01-20T21:06:35.511Z,66.35
2024-01-20T21:09:03.474Z,66.21
2024-01-20T21:11:31.004Z,66.15
2024-01-20T21:13:58.567Z,66.49
2024-01-20T21:16:26.126Z,66.70
2024-01-20T21:18:53.865Z,66.65
2024-01-20T21:21:21.578Z,66.92
2024-01-20T21:23:49.624Z,66.79
2024-01-20T21:26:17.169Z,66.82
2024-01-20T21:28:44.524Z,67.01
2024-01-20T21:31:12.110Z,66.80
2024-01-20T21:33:42.046Z,66.76
2024-01-20T21:36:10.911Z,66.71
2024-01-20T21:38:38.465Z,66.64
2024-01-20T21:41:06.105Z,67.02
2024-01-20T21:43:33.567Z,66.85
2024-01-20T21:46:01.133Z,66.90
2024-01-20T21:48:28.826Z,67.10
2024-01-20T21:50:58.110Z,67.21
2024-01-20T21:53:26.059Z,67.07
2024-01-20T21:55:54.020Z,66.86
2024-01-20T21:58:21.582Z,67.03
2024-01-20T22:00:49.318Z,67.09
2024-01-20T22:03:17.074Z,67.09
2024-01-20T22:05:44.703Z,67.43
2024-01-20T22:08:12.227Z,67.54
2024-01-20T22:10:39.887Z,67.32
2024-01-20T22:13:07.465Z,67.30
2024-01-20T22:15:35.264Z,67.31
2024-01-20T22:18:03.356Z,67.41
2024-01-20T22:20:31.149Z,67.38
2024-01-20T22:22:58.826Z,67.42
2024-01-20T22:25:26.467Z,67.34
2024-01-20T22:27:54.103Z,67.58
2024-01-20T22:30:22.034Z,67.65
2024-01-20T22:32:49.672Z,67.75
2024-01-20T22:35:17.312Z,67.73
2024-01-20T22:37:44.977Z,67.85
2024-01-20T22:40:12.632Z,67.65
2024-01-20T22:42:40.253Z,67.82
2024-01-20T22:45:07.860Z,67.97
2024-01-20T22:47:35.532Z,68.04
2024-01-20T22:50:03.103Z,68.08
2024-01-20T22:52:30.940Z,67.93
2024-01-20T22:54:58.593Z,67.94
2024-01-20T22:57:26.707Z,67.89
2024-01-20T22:59:54.226Z,67.87
2024-01-20T23:02:21.797Z,67.71
2024-01-20T23:04:51.114Z,68.00
2024-01-20T23:07:20.485Z,67.88
2024-01-20T23:09:48.471Z,67.67
2024-01-20T23:12:17.377Z,67.68
2024-01-20T23:14:46.451Z,67.97
2024-01-20T23:17:14.104Z,68.09
2024-01-20T23:19:41.780Z,68.06
2024-01-20T23:22:09.529Z,67.98
2024-01-20T23:24:37.214Z,67.55
2024-01-20T23:27:04.843Z,67.58
2024-01-20T23:29:32.422Z,67.69
2024-01-20T23:32:00.077Z,67.80
2024-01-20T23:34:27.723Z,67.56
2024-01-20T23:36:55.496Z,67.65
2024-01-20T23:39:23.372Z,67.70
2024-01-20T23:41:50.910Z,67.81
2024-01-20T23:44:18.483Z,67.87
2024-01-20T23:46:46.037Z,67.99
2024-01-20T23:49:13.701Z,68.05
2024-01-20T23:51:41.502Z,68.05
2024-01-20T23:54:09.271Z,67.91
2024-01-20T23:56:36.891Z,67.75
2024-01-20T23:59:04.544Z,67.98
